sensor_id;sensor_type;location;lat;lon;timestamp;pressure;altitude;pressure_sealevel;temperature;humidity
40946;BME280;55635;50.264;11.918;2023-02-20T00:01:10;96326.00;;;9.25;87.50
40946;BME280;55635;50.264;11.918;2023-02-20T00:03:51;96330.75;;;9.13;87.34
40946;BME280;55635;50.264;11.918;2023-02-20T00:06:31;96329.84;;;8.97;87.86
40946;BME280;55635;50.264;11.918;2023-02-20T00:09:13;96322.28;;;8.76;88.78
40946;BME280;55635;50.264;11.918;2023-02-20T00:11:54;96318.78;;;9.01;87.83
40946;BME280;55635;50.264;11.918;2023-02-20T00:14:35;96321.88;;;8.89;88.03
40946;BME280;55635;50.264;11.918;2023-02-20T00:17:16;96321.50;;;9.17;87.68
40946;BME280;55635;50.264;11.918;2023-02-20T00:19:56;96308.63;;;9.22;87.23
40946;BME280;55635;50.264;11.918;2023-02-20T00:22:37;96303.28;;;9.14;86.81
40946;BME280;55635;50.264;11.918;2023-02-20T00:25:20;96284.09;;;9.04;87.10
40946;BME280;55635;50.264;11.918;2023-02-20T00:28:01;96290.16;;;8.97;87.56
40946;BME280;55635;50.264;11.918;2023-02-20T00:30:42;96298.72;;;8.91;87.33
40946;BME280;55635;50.264;11.918;2023-02-20T00:33:23;96306.91;;;9.05;87.65
40946;BME280;55635;50.264;11.918;2023-02-20T00:36:04;96293.13;;;8.94;87.31
40946;BME280;55635;50.264;11.918;2023-02-20T00:38:46;96290.34;;;8.95;87.49
40946;BME280;55635;50.264;11.918;2023-02-20T00:41:27;96289.22;;;8.72;88.56
40946;BME280;55635;50.264;11.918;2023-02-20T00:44:08;96304.50;;;8.86;88.31
40946;BME280;55635;50.264;11.918;2023-02-20T00:46:49;96303.50;;;8.87;88.17
40946;BME280;55635;50.264;11.918;2023-02-20T00:49:30;96303.19;;;8.90;87.58
40946;BME280;55635;50.264;11.918;2023-02-20T00:52:23;96302.41;;;8.64;88.79
40946;BME280;55635;50.264;11.918;2023-02-20T00:55:05;96299.00;;;8.80;88.58
40946;BME280;55635;50.264;11.918;2023-02-20T00:57:46;96289.81;;;8.92;87.83
40946;BME280;55635;50.264;11.918;2023-02-20T01:00:29;96287.16;;;8.84;87.36
40946;BME280;55635;50.264;11.918;2023-02-20T01:03:10;96300.97;;;9.11;86.90
40946;BME280;55635;50.264;11.918;2023-02-20T01:05:52;96288.69;;;9.02;87.26
40946;BME280;55635;50.264;11.918;2023-02-20T01:08:33;96292.28;;;8.93;86.88
40946;BME280;55635;50.264;11.918;2023-02-20T01:11:17;96295.94;;;8.92;87.55
40946;BME280;55635;50.264;11.918;2023-02-20T01:13:58;96298.28;;;8.69;87.86
40946;BME280;55635;50.264;11.918;2023-02-20T01:16:50;96286.94;;;8.77;87.48
40946;BME280;55635;50.264;11.918;2023-02-20T01:19:31;96296.06;;;8.83;87.21
40946;BME280;55635;50.264;11.918;2023-02-20T01:22:12;96295.53;;;8.79;87.60
40946;BME280;55635;50.264;11.918;2023-02-20T01:24:53;96284.97;;;8.53;87.50
40946;BME280;55635;50.264;11.918;2023-02-20T01:27:34;96286.19;;;8.59;87.96
40946;BME280;55635;50.264;11.918;2023-02-20T01:30:16;96292.03;;;8.70;87.27
40946;BME280;55635;50.264;11.918;2023-02-20T01:32:57;96291.03;;;8.71;86.87
40946;BME280;55635;50.264;11.918;2023-02-20T01:35:38;96309.28;;;8.83;86.32
40946;BME280;55635;50.264;11.918;2023-02-20T01:38:19;96302.13;;;8.75;86.27
40946;BME280;55635;50.264;11.918;2023-02-20T01:41:00;96306.00;;;8.63;86.26
40946;BME280;55635;50.264;11.918;2023-02-20T01:43:41;96301.25;;;8.66;86.43
40946;BME280;55635;50.264;11.918;2023-02-20T01:49:15;96294.88;;;8.77;85.30
40946;BME280;55635;50.264;11.918;2023-02-20T01:52:06;96294.13;;;8.59;85.41
40946;BME280;55635;50.264;11.918;2023-02-20T01:54:59;96296.31;;;8.71;85.43
40946;BME280;55635;50.264;11.918;2023-02-20T01:57:52;96278.88;;;8.53;84.90
40946;BME280;55635;50.264;11.918;2023-02-20T02:00:35;96281.00;;;8.49;84.76
40946;BME280;55635;50.264;11.918;2023-02-20T02:03:22;96281.59;;;8.69;85.03
40946;BME280;55635;50.264;11.918;2023-02-20T02:06:06;96276.38;;;8.77;84.08
40946;BME280;55635;50.264;11.918;2023-02-20T02:08:55;96280.00;;;8.50;84.93
40946;BME280;55635;50.264;11.918;2023-02-20T02:11:38;96291.16;;;8.62;84.41
40946;BME280;55635;50.264;11.918;2023-02-20T02:14:19;96284.78;;;8.47;84.77
40946;BME280;55635;50.264;11.918;2023-02-20T02:27:13;96254.97;;;8.29;84.31
40946;BME280;55635;50.264;11.918;2023-02-20T02:37:02;96274.22;;;8.03;84.77
40946;BME280;55635;50.264;11.918;2023-02-20T02:42:49;96258.38;;;8.03;84.61
40946;BME280;55635;50.264;11.918;2023-02-20T02:48:46;96242.78;;;8.18;83.86
40946;BME280;55635;50.264;11.918;2023-02-20T02:51:36;96249.75;;;8.19;84.06
40946;BME280;55635;50.264;11.918;2023-02-20T02:54:24;96242.81;;;8.26;83.42
40946;BME280;55635;50.264;11.918;2023-02-20T02:57:25;96250.53;;;8.19;84.15
40946;BME280;55635;50.264;11.918;2023-02-20T03:00:31;96255.63;;;8.31;84.08
40946;BME280;55635;50.264;11.918;2023-02-20T03:03:23;96240.75;;;8.30;84.20
40946;BME280;55635;50.264;11.918;2023-02-20T03:09:15;96242.97;;;7.99;85.48
40946;BME280;55635;50.264;11.918;2023-02-20T03:11:59;96246.41;;;7.91;85.87
40946;BME280;55635;50.264;11.918;2023-02-20T03:15:04;96241.22;;;8.07;84.90
40946;BME280;55635;50.264;11.918;2023-02-20T03:18:30;96239.59;;;8.32;83.97
40946;BME280;55635;50.264;11.918;2023-02-20T03:21:22;96236.31;;;8.12;83.76
40946;BME280;55635;50.264;11.918;2023-02-20T03:24:06;96239.16;;;8.19;83.36
40946;BME280;55635;50.264;11.918;2023-02-20T03:26:52;96233.06;;;8.18;82.93
40946;BME280;55635;50.264;11.918;2023-02-20T03:29:36;96232.94;;;8.02;83.10
40946;BME280;55635;50.264;11.918;2023-02-20T03:32:20;96229.47;;;8.02;82.99
40946;BME280;55635;50.264;11.918;2023-02-20T03:35:24;96207.03;;;7.80;83.01
40946;BME280;55635;50.264;11.918;2023-02-20T03:38:24;96205.91;;;7.65;83.48
40946;BME280;55635;50.264;11.918;2023-02-20T03:41:25;96222.88;;;7.80;83.42
40946;BME280;55635;50.264;11.918;2023-02-20T03:44:25;96231.38;;;7.74;82.92
40946;BME280;55635;50.264;11.918;2023-02-20T03:47:10;96237.88;;;7.62;83.28
40946;BME280;55635;50.264;11.918;2023-02-20T03:49:55;96233.81;;;7.67;83.43
40946;BME280;55635;50.264;11.918;2023-02-20T03:52:36;96218.72;;;7.78;83.91
40946;BME280;55635;50.264;11.918;2023-02-20T03:55:20;96225.81;;;7.95;83.24
40946;BME280;55635;50.264;11.918;2023-02-20T03:58:06;96220.91;;;7.82;83.03
40946;BME280;55635;50.264;11.918;2023-02-20T04:00:52;96228.63;;;8.01;82.82
40946;BME280;55635;50.264;11.918;2023-02-20T04:03:38;96223.25;;;7.67;82.78
40946;BME280;55635;50.264;11.918;2023-02-20T04:06:25;96226.50;;;7.79;83.06
40946;BME280;55635;50.264;11.918;2023-02-20T04:09:18;96223.16;;;7.77;82.59
40946;BME280;55635;50.264;11.918;2023-02-20T04:12:13;96230.78;;;7.98;82.43
40946;BME280;55635;50.264;11.918;2023-02-20T04:14:58;96217.16;;;7.67;82.50
40946;BME280;55635;50.264;11.918;2023-02-20T04:18:08;96220.13;;;7.64;83.30
40946;BME280;55635;50.264;11.918;2023-02-20T04:20:54;96229.59;;;7.75;82.96
40946;BME280;55635;50.264;11.918;2023-02-20T04:23:47;96228.63;;;7.76;82.62
40946;BME280;55635;50.264;11.918;2023-02-20T04:26:30;96247.53;;;7.71;82.58
40946;BME280;55635;50.264;11.918;2023-02-20T04:29:12;96249.13;;;7.64;83.13
40946;BME280;55635;50.264;11.918;2023-02-20T04:31:53;96237.66;;;7.55;83.59
40946;BME280;55635;50.264;11.918;2023-02-20T04:34:36;96235.19;;;7.54;83.50
40946;BME280;55635;50.264;11.918;2023-02-20T04:37:19;96238.13;;;7.51;83.56
40946;BME280;55635;50.264;11.918;2023-02-20T04:40:05;96230.81;;;7.45;83.77
40946;BME280;55635;50.264;11.918;2023-02-20T04:42:47;96253.13;;;7.50;84.25
40946;BME280;55635;50.264;11.918;2023-02-20T04:45:28;96255.22;;;7.64;83.35
40946;BME280;55635;50.264;11.918;2023-02-20T04:48:09;96251.31;;;7.68;82.91
40946;BME280;55635;50.264;11.918;2023-02-20T04:50:51;96243.09;;;7.54;83.68
40946;BME280;55635;50.264;11.918;2023-02-20T04:53:33;96251.25;;;7.60;83.88
40946;BME280;55635;50.264;11.918;2023-02-20T04:56:14;96249.03;;;7.56;83.47
40946;BME280;55635;50.264;11.918;2023-02-20T04:58:56;96250.72;;;7.57;83.20
40946;BME280;55635;50.264;11.918;2023-02-20T05:01:37;96242.34;;;7.44;84.11
40946;BME280;55635;50.264;11.918;2023-02-20T05:04:19;96216.50;;;7.30;84.04
40946;BME280;55635;50.264;11.918;2023-02-20T05:07:01;96249.44;;;7.61;83.62
40946;BME280;55635;50.264;11.918;2023-02-20T05:09:43;96237.53;;;7.57;83.28
40946;BME280;55635;50.264;11.918;2023-02-20T05:12:24;96245.75;;;7.54;83.31
40946;BME280;55635;50.264;11.918;2023-02-20T05:15:05;96256.91;;;7.48;83.73
40946;BME280;55635;50.264;11.918;2023-02-20T05:17:46;96260.97;;;7.60;83.70
40946;BME280;55635;50.264;11.918;2023-02-20T05:20:27;96265.69;;;7.74;83.02
40946;BME280;55635;50.264;11.918;2023-02-20T05:23:27;96261.13;;;7.76;82.52
40946;BME280;55635;50.264;11.918;2023-02-20T05:26:10;96266.53;;;7.75;82.94
40946;BME280;55635;50.264;11.918;2023-02-20T05:28:51;96281.53;;;7.74;82.27
40946;BME280;55635;50.264;11.918;2023-02-20T05:31:32;96291.34;;;7.82;82.64
40946;BME280;55635;50.264;11.918;2023-02-20T05:34:12;96306.00;;;7.76;82.58
40946;BME280;55635;50.264;11.918;2023-02-20T05:36:53;96302.06;;;7.98;81.88
40946;BME280;55635;50.264;11.918;2023-02-20T05:39:36;96289.81;;;7.61;82.06
40946;BME280;55635;50.264;11.918;2023-02-20T05:42:18;96280.03;;;7.54;82.99
40946;BME280;55635;50.264;11.918;2023-02-20T05:45:01;96268.41;;;7.47;83.12
40946;BME280;55635;50.264;11.918;2023-02-20T05:47:41;96276.38;;;7.20;83.70
40946;BME280;55635;50.264;11.918;2023-02-20T05:50:22;96254.78;;;7.34;83.97
40946;BME280;55635;50.264;11.918;2023-02-20T05:53:04;96241.59;;;7.34;83.52
40946;BME280;55635;50.264;11.918;2023-02-20T05:55:45;96247.91;;;7.41;83.72
40946;BME280;55635;50.264;11.918;2023-02-20T05:58:26;96261.69;;;7.35;83.98
40946;BME280;55635;50.264;11.918;2023-02-20T06:01:07;96266.97;;;7.35;83.75
40946;BME280;55635;50.264;11.918;2023-02-20T06:03:49;96267.88;;;7.26;83.90
40946;BME280;55635;50.264;11.918;2023-02-20T06:06:38;96262.59;;;7.26;84.06
40946;BME280;55635;50.264;11.918;2023-02-20T06:09:19;96262.28;;;7.11;84.74
40946;BME280;55635;50.264;11.918;2023-02-20T06:12:00;96262.81;;;7.15;84.07
40946;BME280;55635;50.264;11.918;2023-02-20T06:14:41;96262.31;;;7.29;84.62
40946;BME280;55635;50.264;11.918;2023-02-20T06:17:22;96237.22;;;7.25;84.64
40946;BME280;55635;50.264;11.918;2023-02-20T06:20:03;96237.97;;;7.35;84.19
40946;BME280;55635;50.264;11.918;2023-02-20T06:22:44;96248.53;;;6.90;85.82
40946;BME280;55635;50.264;11.918;2023-02-20T06:25:26;96242.63;;;7.05;86.36
40946;BME280;55635;50.264;11.918;2023-02-20T06:28:07;96217.56;;;6.92;86.12
40946;BME280;55635;50.264;11.918;2023-02-20T06:30:48;96239.38;;;7.11;85.74
40946;BME280;55635;50.264;11.918;2023-02-20T06:33:30;96245.50;;;7.30;84.92
40946;BME280;55635;50.264;11.918;2023-02-20T06:36:31;96259.47;;;7.40;85.10
40946;BME280;55635;50.264;11.918;2023-02-20T06:39:13;96250.63;;;7.31;84.84
40946;BME280;55635;50.264;11.918;2023-02-20T06:41:55;96259.56;;;7.03;85.94
40946;BME280;55635;50.264;11.918;2023-02-20T06:44:36;96266.41;;;7.13;85.77
40946;BME280;55635;50.264;11.918;2023-02-20T06:47:17;96272.91;;;7.19;86.50
40946;BME280;55635;50.264;11.918;2023-02-20T06:49:58;96263.88;;;7.22;86.01
40946;BME280;55635;50.264;11.918;2023-02-20T06:52:38;96272.31;;;7.25;86.59
40946;BME280;55635;50.264;11.918;2023-02-20T06:55:19;96265.00;;;7.19;86.40
40946;BME280;55635;50.264;11.918;2023-02-20T06:58:00;96281.94;;;7.17;87.24
40946;BME280;55635;50.264;11.918;2023-02-20T07:00:41;96274.88;;;7.17;87.35
40946;BME280;55635;50.264;11.918;2023-02-20T07:03:22;96266.38;;;6.96;87.62
40946;BME280;55635;50.264;11.918;2023-02-20T07:06:03;96266.97;;;7.17;88.07
40946;BME280;55635;50.264;11.918;2023-02-20T07:08:44;96265.72;;;7.39;86.88
40946;BME280;55635;50.264;11.918;2023-02-20T07:11:25;96251.38;;;7.41;86.59
40946;BME280;55635;50.264;11.918;2023-02-20T07:14:06;96266.78;;;7.46;86.59
40946;BME280;55635;50.264;11.918;2023-02-20T07:16:47;96276.50;;;7.45;86.30
40946;BME280;55635;50.264;11.918;2023-02-20T07:19:28;96281.47;;;7.48;86.19
40946;BME280;55635;50.264;11.918;2023-02-20T07:22:09;96275.13;;;7.41;86.72
40946;BME280;55635;50.264;11.918;2023-02-20T07:24:54;96278.06;;;7.56;86.04
40946;BME280;55635;50.264;11.918;2023-02-20T07:27:35;96280.94;;;7.62;85.76
40946;BME280;55635;50.264;11.918;2023-02-20T07:30:15;96270.38;;;7.45;86.28
40946;BME280;55635;50.264;11.918;2023-02-20T07:32:56;96252.81;;;7.71;85.62
40946;BME280;55635;50.264;11.918;2023-02-20T07:35:40;96245.81;;;7.44;85.94
40946;BME280;55635;50.264;11.918;2023-02-20T07:38:21;96256.13;;;7.55;85.91
40946;BME280;55635;50.264;11.918;2023-02-20T07:41:03;96248.97;;;7.65;85.15
40946;BME280;55635;50.264;11.918;2023-02-20T07:43:44;96239.03;;;7.59;84.89
40946;BME280;55635;50.264;11.918;2023-02-20T07:46:26;96237.28;;;7.68;83.75
40946;BME280;55635;50.264;11.918;2023-02-20T07:49:07;96240.00;;;7.58;84.96
40946;BME280;55635;50.264;11.918;2023-02-20T07:51:49;96235.97;;;7.90;83.08
40946;BME280;55635;50.264;11.918;2023-02-20T07:54:30;96231.22;;;7.93;83.87
40946;BME280;55635;50.264;11.918;2023-02-20T07:57:10;96232.00;;;7.68;84.42
40946;BME280;55635;50.264;11.918;2023-02-20T07:59:51;96209.31;;;7.75;84.63
40946;BME280;55635;50.264;11.918;2023-02-20T08:02:32;96217.91;;;7.59;83.03
40946;BME280;55635;50.264;11.918;2023-02-20T08:05:13;96209.44;;;7.74;82.94
40946;BME280;55635;50.264;11.918;2023-02-20T08:07:54;96210.19;;;8.53;82.80
40946;BME280;55635;50.264;11.918;2023-02-20T08:10:35;96223.50;;;8.77;79.46
40946;BME280;55635;50.264;11.918;2023-02-20T08:13:17;96217.25;;;8.86;78.62
40946;BME280;55635;50.264;11.918;2023-02-20T08:15:58;96235.53;;;9.13;77.50
40946;BME280;55635;50.264;11.918;2023-02-20T08:18:39;96224.38;;;9.60;76.96
40946;BME280;55635;50.264;11.918;2023-02-20T08:21:20;96212.34;;;9.07;77.48
40946;BME280;55635;50.264;11.918;2023-02-20T08:24:01;96204.53;;;9.72;76.86
40946;BME280;55635;50.264;11.918;2023-02-20T08:26:46;96200.72;;;9.91;75.61
40946;BME280;55635;50.264;11.918;2023-02-20T08:29:28;96203.84;;;9.86;74.60
40946;BME280;55635;50.264;11.918;2023-02-20T08:32:08;96188.09;;;10.09;73.48
40946;BME280;55635;50.264;11.918;2023-02-20T08:34:49;96203.84;;;10.26;73.95
40946;BME280;55635;50.264;11.918;2023-02-20T08:37:30;96202.31;;;10.87;70.46
40946;BME280;55635;50.264;11.918;2023-02-20T08:40:12;96205.78;;;10.49;71.36
40946;BME280;55635;50.264;11.918;2023-02-20T08:42:53;96191.31;;;11.29;69.01
40946;BME280;55635;50.264;11.918;2023-02-20T08:45:34;96190.25;;;11.07;69.27
40946;BME280;55635;50.264;11.918;2023-02-20T08:48:15;96197.03;;;11.71;66.98
40946;BME280;55635;50.264;11.918;2023-02-20T08:50:56;96183.94;;;11.70;66.09
40946;BME280;55635;50.264;11.918;2023-02-20T08:53:38;96172.09;;;11.27;67.10
40946;BME280;55635;50.264;11.918;2023-02-20T08:56:23;96169.81;;;12.07;66.69
40946;BME280;55635;50.264;11.918;2023-02-20T08:59:04;96167.06;;;12.15;67.83
40946;BME280;55635;50.264;11.918;2023-02-20T09:01:45;96160.97;;;11.77;66.69
40946;BME280;55635;50.264;11.918;2023-02-20T09:04:25;96147.50;;;11.56;68.47
40946;BME280;55635;50.264;11.918;2023-02-20T09:07:06;96141.25;;;12.38;66.20
40946;BME280;55635;50.264;11.918;2023-02-20T09:09:47;96137.78;;;12.37;64.81
40946;BME280;55635;50.264;11.918;2023-02-20T09:12:30;96131.97;;;12.48;65.97
40946;BME280;55635;50.264;11.918;2023-02-20T09:15:12;96132.72;;;12.13;66.65
40946;BME280;55635;50.264;11.918;2023-02-20T09:17:57;96128.28;;;11.91;68.04
40946;BME280;55635;50.264;11.918;2023-02-20T09:20:38;96123.34;;;12.76;64.79
40946;BME280;55635;50.264;11.918;2023-02-20T09:23:19;96118.56;;;12.86;63.57
40946;BME280;55635;50.264;11.918;2023-02-20T09:26:04;96106.31;;;13.27;63.11
40946;BME280;55635;50.264;11.918;2023-02-20T09:28:45;96115.84;;;13.79;63.36
40946;BME280;55635;50.264;11.918;2023-02-20T09:31:26;96116.03;;;13.56;61.85
40946;BME280;55635;50.264;11.918;2023-02-20T09:34:08;96115.34;;;13.26;63.63
40946;BME280;55635;50.264;11.918;2023-02-20T09:36:49;96125.31;;;13.60;63.23
40946;BME280;55635;50.264;11.918;2023-02-20T09:39:30;96125.09;;;13.83;63.42
40946;BME280;55635;50.264;11.918;2023-02-20T09:42:22;96118.59;;;13.07;62.25
40946;BME280;55635;50.264;11.918;2023-02-20T09:45:21;96125.44;;;12.80;65.10
40946;BME280;55635;50.264;11.918;2023-02-20T09:51:18;96126.50;;;13.36;63.10
40946;BME280;55635;50.264;11.918;2023-02-20T09:54:17;96110.38;;;12.87;64.95
40946;BME280;55635;50.264;11.918;2023-02-20T09:57:04;96122.81;;;12.51;63.96
40946;BME280;55635;50.264;11.918;2023-02-20T10:00:00;96117.78;;;11.37;65.49
40946;BME280;55635;50.264;11.918;2023-02-20T10:06:16;96101.06;;;11.06;68.47
40946;BME280;55635;50.264;11.918;2023-02-20T10:08:58;96108.50;;;11.33;68.66
40946;BME280;55635;50.264;11.918;2023-02-20T10:28:12;96099.81;;;10.94;68.70
40946;BME280;55635;50.264;11.918;2023-02-20T10:36:59;96101.50;;;10.17;72.91
40946;BME280;55635;50.264;11.918;2023-02-20T10:39:54;96082.25;;;10.62;72.94
40946;BME280;55635;50.264;11.918;2023-02-20T10:46:09;96073.81;;;10.59;73.05
40946;BME280;55635;50.264;11.918;2023-02-20T10:48:53;96063.88;;;10.61;71.35
40946;BME280;55635;50.264;11.918;2023-02-20T10:51:44;96057.03;;;10.97;70.71
40946;BME280;55635;50.264;11.918;2023-02-20T10:54:41;96066.44;;;11.22;70.71
40946;BME280;55635;50.264;11.918;2023-02-20T10:58:03;96052.78;;;11.25;70.99
40946;BME280;55635;50.264;11.918;2023-02-20T11:00:54;96047.63;;;11.09;71.66
40946;BME280;55635;50.264;11.918;2023-02-20T11:04:11;96042.75;;;11.35;70.46
40946;BME280;55635;50.264;11.918;2023-02-20T11:07:02;96041.03;;;11.05;70.16
40946;BME280;55635;50.264;11.918;2023-02-20T11:09:44;96035.25;;;11.02;71.43
40946;BME280;55635;50.264;11.918;2023-02-20T11:12:48;96028.63;;;11.58;71.16
40946;BME280;55635;50.264;11.918;2023-02-20T11:15:32;96037.63;;;10.97;71.35
40946;BME280;55635;50.264;11.918;2023-02-20T11:18:32;96038.56;;;11.04;72.68
40946;BME280;55635;50.264;11.918;2023-02-20T11:21:45;96034.81;;;11.73;70.30
40946;BME280;55635;50.264;11.918;2023-02-20T11:24:45;96033.44;;;11.39;71.03
40946;BME280;55635;50.264;11.918;2023-02-20T11:27:26;96022.75;;;11.62;69.12
40946;BME280;55635;50.264;11.918;2023-02-20T11:30:34;96004.13;;;11.70;68.84
40946;BME280;55635;50.264;11.918;2023-02-20T11:33:23;96015.84;;;11.90;68.96
40946;BME280;55635;50.264;11.918;2023-02-20T11:36:23;96004.91;;;12.29;68.87
40946;BME280;55635;50.264;11.918;2023-02-20T11:39:34;95997.63;;;12.17;67.62
40946;BME280;55635;50.264;11.918;2023-02-20T11:42:17;95985.44;;;11.93;68.91
40946;BME280;55635;50.264;11.918;2023-02-20T11:45:21;95993.31;;;11.86;70.15
40946;BME280;55635;50.264;11.918;2023-02-20T11:48:08;95990.81;;;12.14;69.48
40946;BME280;55635;50.264;11.918;2023-02-20T11:50:52;95987.38;;;12.71;67.29
40946;BME280;55635;50.264;11.918;2023-02-20T11:53:33;95979.69;;;11.89;68.89
40946;BME280;55635;50.264;11.918;2023-02-20T11:56:17;95973.81;;;12.30;68.35
40946;BME280;55635;50.264;11.918;2023-02-20T12:05:08;95976.63;;;13.49;64.20
40946;BME280;55635;50.264;11.918;2023-02-20T12:10:43;95959.44;;;13.51;62.56
40946;BME280;55635;50.264;11.918;2023-02-20T12:13:26;95967.38;;;13.17;63.83
40946;BME280;55635;50.264;11.918;2023-02-20T12:27:49;95954.16;;;13.30;64.33
40946;BME280;55635;50.264;11.918;2023-02-20T12:37:46;95955.59;;;13.95;59.97
40946;BME280;55635;50.264;11.918;2023-02-20T12:47:32;95950.94;;;14.57;59.90
40946;BME280;55635;50.264;11.918;2023-02-20T12:53:44;95946.50;;;12.78;64.14
40946;BME280;55635;50.264;11.918;2023-02-20T13:00:01;95963.41;;;13.62;63.32
40946;BME280;55635;50.264;11.918;2023-02-20T13:02:50;95947.13;;;13.50;60.79
40946;BME280;55635;50.264;11.918;2023-02-20T13:05:39;95946.53;;;13.27;62.66
40946;BME280;55635;50.264;11.918;2023-02-20T13:08:42;95932.78;;;12.75;61.78
40946;BME280;55635;50.264;11.918;2023-02-20T13:11:32;95921.28;;;13.79;60.94
40946;BME280;55635;50.264;11.918;2023-02-20T13:20:48;95918.69;;;13.23;61.79
40946;BME280;55635;50.264;11.918;2023-02-20T13:23:35;95896.81;;;13.06;63.63
40946;BME280;55635;50.264;11.918;2023-02-20T13:29:16;95902.50;;;13.25;63.94
40946;BME280;55635;50.264;11.918;2023-02-20T13:32:00;95898.63;;;13.06;64.25
40946;BME280;55635;50.264;11.918;2023-02-20T13:34:42;95882.81;;;12.49;63.04
40946;BME280;55635;50.264;11.918;2023-02-20T13:48:46;95892.06;;;13.02;64.78
40946;BME280;55635;50.264;11.918;2023-02-20T13:51:29;95886.75;;;13.02;63.85
40946;BME280;55635;50.264;11.918;2023-02-20T13:54:22;95877.41;;;13.13;64.38
40946;BME280;55635;50.264;11.918;2023-02-20T13:57:16;95877.22;;;13.42;63.49
40946;BME280;55635;50.264;11.918;2023-02-20T13:59:58;95879.88;;;13.83;62.20
40946;BME280;55635;50.264;11.918;2023-02-20T14:02:40;95870.41;;;13.39;62.36
40946;BME280;55635;50.264;11.918;2023-02-20T14:05:31;95866.28;;;12.81;65.32
40946;BME280;55635;50.264;11.918;2023-02-20T14:08:18;95863.19;;;12.99;66.95
40946;BME280;55635;50.264;11.918;2023-02-20T14:11:33;95865.13;;;12.90;65.41
40946;BME280;55635;50.264;11.918;2023-02-20T14:14:28;95871.31;;;12.70;65.25
40946;BME280;55635;50.264;11.918;2023-02-20T14:17:23;95848.31;;;13.39;63.61
40946;BME280;55635;50.264;11.918;2023-02-20T14:20:11;95848.44;;;13.03;65.71
40946;BME280;55635;50.264;11.918;2023-02-20T14:23:24;95849.44;;;12.95;65.30
40946;BME280;55635;50.264;11.918;2023-02-20T14:28:59;95828.19;;;13.36;62.38
40946;BME280;55635;50.264;11.918;2023-02-20T14:31:40;95834.00;;;13.12;63.39
40946;BME280;55635;50.264;11.918;2023-02-20T14:37:28;95818.81;;;13.40;63.00
40946;BME280;55635;50.264;11.918;2023-02-20T14:40:33;95809.91;;;13.20;64.81
40946;BME280;55635;50.264;11.918;2023-02-20T14:43:20;95794.03;;;13.46;64.06
40946;BME280;55635;50.264;11.918;2023-02-20T14:46:05;95793.31;;;13.25;63.56
40946;BME280;55635;50.264;11.918;2023-02-20T14:48:47;95782.69;;;12.63;64.64
40946;BME280;55635;50.264;11.918;2023-02-20T14:51:28;95788.56;;;12.58;64.87
40946;BME280;55635;50.264;11.918;2023-02-20T14:54:19;95796.41;;;12.66;65.60
40946;BME280;55635;50.264;11.918;2023-02-20T14:57:00;95784.25;;;12.57;65.69
40946;BME280;55635;50.264;11.918;2023-02-20T14:59:44;95784.41;;;12.77;64.52
40946;BME280;55635;50.264;11.918;2023-02-20T15:02:26;95781.53;;;12.72;66.02
40946;BME280;55635;50.264;11.918;2023-02-20T15:05:14;95809.72;;;12.45;65.29
40946;BME280;55635;50.264;11.918;2023-02-20T15:08:23;95793.31;;;12.63;66.18
40946;BME280;55635;50.264;11.918;2023-02-20T15:11:12;95794.53;;;12.94;65.50
40946;BME280;55635;50.264;11.918;2023-02-20T15:13:55;95806.91;;;12.74;65.63
40946;BME280;55635;50.264;11.918;2023-02-20T15:16:37;95799.22;;;12.86;67.17
40946;BME280;55635;50.264;11.918;2023-02-20T15:19:38;95805.97;;;13.16;66.61
40946;BME280;55635;50.264;11.918;2023-02-20T15:22:24;95804.72;;;12.57;67.48
40946;BME280;55635;50.264;11.918;2023-02-20T15:33:53;95805.41;;;13.27;64.40
40946;BME280;55635;50.264;11.918;2023-02-20T15:36:34;95801.75;;;13.28;61.59
40946;BME280;55635;50.264;11.918;2023-02-20T15:39:16;95815.19;;;13.14;62.07
40946;BME280;55635;50.264;11.918;2023-02-20T15:41:57;95794.97;;;13.26;59.68
40946;BME280;55635;50.264;11.918;2023-02-20T15:44:38;95796.59;;;13.20;59.28
40946;BME280;55635;50.264;11.918;2023-02-20T15:47:19;95794.31;;;13.17;58.71
40946;BME280;55635;50.264;11.918;2023-02-20T15:50:00;95796.97;;;13.17;57.53
40946;BME280;55635;50.264;11.918;2023-02-20T15:52:42;95813.66;;;13.04;57.48
40946;BME280;55635;50.264;11.918;2023-02-20T15:55:32;95801.78;;;13.35;58.21
40946;BME280;55635;50.264;11.918;2023-02-20T15:58:36;95803.63;;;13.34;57.42
40946;BME280;55635;50.264;11.918;2023-02-20T16:01:18;95800.69;;;12.95;58.54
40946;BME280;55635;50.264;11.918;2023-02-20T16:03:59;95792.09;;;12.93;60.02
40946;BME280;55635;50.264;11.918;2023-02-20T16:06:40;95795.59;;;13.00;60.38
40946;BME280;55635;50.264;11.918;2023-02-20T16:09:23;95797.25;;;13.01;60.72
40946;BME280;55635;50.264;11.918;2023-02-20T16:12:04;95790.56;;;12.49;61.96
40946;BME280;55635;50.264;11.918;2023-02-20T16:14:45;95807.00;;;12.38;63.21
40946;BME280;55635;50.264;11.918;2023-02-20T16:17:31;95802.41;;;12.75;62.75
40946;BME280;55635;50.264;11.918;2023-02-20T16:20:16;95795.78;;;12.15;63.59
40946;BME280;55635;50.264;11.918;2023-02-20T16:22:57;95800.50;;;12.41;63.57
40946;BME280;55635;50.264;11.918;2023-02-20T16:25:38;95772.00;;;12.07;64.44
40946;BME280;55635;50.264;11.918;2023-02-20T16:28:19;95790.28;;;12.17;64.53
40946;BME280;55635;50.264;11.918;2023-02-20T16:31:00;95778.06;;;12.01;64.72
40946;BME280;55635;50.264;11.918;2023-02-20T16:33:41;95794.31;;;12.13;64.79
40946;BME280;55635;50.264;11.918;2023-02-20T16:36:21;95787.56;;;11.89;65.42
40946;BME280;55635;50.264;11.918;2023-02-20T16:39:02;95785.22;;;11.65;65.79
40946;BME280;55635;50.264;11.918;2023-02-20T16:41:43;95782.25;;;11.24;67.38
40946;BME280;55635;50.264;11.918;2023-02-20T16:44:35;95784.25;;;11.36;66.96
40946;BME280;55635;50.264;11.918;2023-02-20T16:47:20;95788.13;;;11.34;66.88
40946;BME280;55635;50.264;11.918;2023-02-20T16:50:02;95779.25;;;11.12;67.78